createdAt,value
2022-11-16T04:43:10.852Z,41.70
2022-11-16T04:48:14.066Z,42.67
2022-11-16T04:53:16.269Z,42.80
2022-11-16T04:58:18.258Z,43.50
2022-11-16T05:03:20.241Z,45.10
2022-11-16T05:08:22.241Z,49.38
2022-11-16T05:13:24.225Z,45.73
2022-11-16T05:18:26.230Z,50.05
2022-11-16T05:23:46.844Z,46.20
2022-11-16T05:28:49.018Z,53.60
2022-11-16T05:33:51.009Z,47.67
2022-11-16T05:38:56.260Z,51.42
2022-11-16T05:43:58.521Z,57.90
2022-11-16T05:49:00.682Z,55.80
2022-11-16T05:54:04.037Z,52.13
2022-11-16T05:59:06.749Z,63.72
2022-11-16T06:04:09.458Z,55.37
2022-11-16T06:09:12.515Z,53.78
2022-11-16T06:14:14.524Z,58.72
2022-11-16T06:19:16.530Z,57.33
2022-11-16T06:24:18.504Z,60.57
2022-11-16T06:29:20.647Z,64.78
2022-11-16T06:34:22.626Z,60.40
2022-11-16T06:39:24.646Z,59.13
2022-11-16T06:44:26.660Z,65.45
2022-11-16T06:49:28.807Z,68.72
2022-11-16T06:54:30.809Z,59.07
2022-11-16T06:59:32.824Z,73.57
2022-11-16T07:04:34.828Z,72.87
2022-11-16T07:09:36.842Z,60.97
2022-11-16T07:14:38.949Z,62.03
2022-11-16T07:19:40.991Z,60.65
2022-11-16T07:24:43.031Z,58.58
2022-11-16T07:29:45.029Z,62.13
2022-11-16T07:34:47.031Z,61.90
2022-11-16T07:39:49.030Z,62.47
2022-11-16T07:44:51.089Z,67.20
2022-11-16T07:49:53.119Z,72.60
2022-11-16T07:54:55.109Z,64.15
2022-11-16T07:59:57.160Z,88.77
2022-11-16T08:04:59.148Z,68.27
2022-11-16T08:10:01.988Z,70.25
2022-11-16T08:15:04.433Z,69.75
2022-11-16T08:20:08.325Z,69.33
2022-11-16T08:25:11.033Z,66.22
2022-11-16T08:30:13.437Z,61.22
2022-11-16T08:35:15.562Z,64.17
2022-11-16T08:40:17.751Z,61.00
2022-11-16T08:45:19.758Z,65.35
2022-11-16T08:50:21.794Z,65.47
2022-11-16T08:55:24.898Z,73.53
2022-11-16T09:00:26.885Z,66.85
2022-11-16T09:05:29.335Z,63.85
2022-11-16T09:10:31.542Z,77.80
2022-11-16T09:15:33.527Z,86.28
2022-11-16T09:20:35.680Z,69.57
2022-11-16T09:25:37.679Z,69.57
2022-11-16T09:36:07.212Z,61.05
2022-11-16T09:41:15.161Z,67.43
2022-11-16T09:46:26.721Z,62.33
2022-11-16T09:51:33.665Z,64.32
2022-11-16T09:56:40.057Z,62.00
2022-11-16T10:01:46.996Z,63.70
2022-11-16T10:07:08.084Z,63.60
2022-11-16T10:12:16.662Z,58.72
2022-11-16T10:17:46.256Z,63.83
2022-11-16T10:23:00.683Z,64.30
2022-11-16T10:28:05.685Z,62.42
2022-11-16T10:33:12.780Z,69.13
2022-11-16T10:38:22.333Z,59.17
2022-11-16T10:43:28.461Z,57.88
2022-11-16T10:48:41.193Z,56.22
2022-11-16T10:53:44.255Z,56.60
2022-11-16T11:05:08.031Z,48.45
2022-11-16T11:10:42.717Z,47.70
2022-11-16T11:15:44.997Z,53.38
2022-11-16T11:20:52.474Z,76.32
2022-11-16T11:25:57.760Z,53.23
2022-11-16T11:31:04.258Z,56.23
2022-11-16T11:36:09.604Z,51.00
2022-11-16T11:41:19.044Z,50.20
2022-11-16T11:46:50.194Z,54.13
2022-11-16T11:51:52.189Z,58.58
2022-11-16T11:56:54.555Z,46.50
2022-11-16T12:02:04.150Z,46.70
2022-11-16T12:07:09.182Z,51.97
2022-11-16T12:12:39.085Z,50.38
2022-11-16T12:17:55.145Z,49.07
2022-11-16T12:23:03.942Z,47.10
2022-11-16T12:28:28.438Z,47.58
2022-11-16T12:34:24.265Z,46.25
2022-11-16T12:39:44.389Z,49.70
2022-11-16T12:45:07.890Z,47.03
2022-11-16T12:50:50.185Z,49.58
2022-11-16T12:56:10.540Z,44.87
2022-11-16T13:01:40.388Z,47.08
2022-11-16T13:07:10.891Z,45.03
2022-11-16T13:12:17.287Z,49.20
2022-11-16T13:17:22.872Z,53.17
2022-11-16T13:22:28.780Z,51.30
2022-11-16T13:27:41.294Z,44.42
2022-11-16T13:32:47.753Z,47.23
2022-11-16T13:37:52.095Z,47.45
2022-11-16T13:43:04.902Z,42.90
2022-11-16T13:48:21.197Z,41.60
2022-11-16T13:58:55.678Z,42.83
2022-11-16T14:04:34.391Z,38.47
2022-11-16T14:09:44.108Z,39.27
2022-11-16T14:15:14.614Z,37.85
2022-11-16T14:20:24.708Z,40.83
2022-11-16T14:25:37.376Z,37.43
2022-11-16T14:31:25.871Z,45.78
2022-11-16T14:36:38.654Z,38.55
2022-11-16T14:41:44.723Z,41.33
2022-11-16T14:46:46.895Z,39.95
2022-11-16T14:51:55.830Z,37.22
2022-11-16T14:57:17.788Z,37.40
2022-11-16T15:02:23.348Z,34.40
2022-11-16T15:07:28.548Z,38.00
2022-11-16T15:12:42.557Z,37.97
2022-11-16T15:17:51.990Z,38.40
2022-11-16T15:22:58.759Z,36.08
2022-11-16T15:28:05.220Z,35.15
2022-11-16T15:33:15.609Z,35.30
2022-11-16T15:38:19.995Z,35.95
2022-11-16T15:43:26.483Z,36.35
2022-11-16T15:48:29.842Z,38.60
2022-11-16T15:53:41.688Z,33.93
2022-11-16T15:58:44.652Z,35.72
2022-11-16T16:03:54.390Z,34.08
2022-11-16T16:09:06.622Z,31.63
2022-11-16T16:14:10.915Z,35.75
2022-11-16T16:19:32.539Z,37.47
2022-11-16T16:24:46.126Z,36.87
2022-11-16T16:29:50.163Z,40.42
2022-11-16T16:34:57.493Z,35.22
2022-11-16T16:40:00.140Z,37.80
2022-11-16T16:45:02.488Z,38.13
2022-11-16T16:50:04.821Z,38.38
2022-11-16T16:55:07.134Z,35.85
2022-11-16T17:00:11.161Z,33.87
2022-11-16T17:05:13.225Z,33.53
2022-11-16T17:10:15.891Z,34.22
2022-11-16T17:15:19.445Z,31.90
2022-11-16T17:20:21.717Z,34.55
2022-11-16T17:25:23.809Z,33.67
2022-11-16T17:30:25.818Z,36.03
2022-11-16T17:35:27.859Z,27.03
2022-11-16T17:40:29.876Z,28.23
2022-11-16T17:45:32.187Z,27.83
2022-11-16T17:50:34.204Z,28.90
2022-11-16T17:55:37.538Z,31.00
2022-11-16T18:00:39.535Z,31.35
2022-11-16T18:05:41.617Z,29.33
2022-11-16T18:10:43.987Z,25.75
2022-11-16T18:15:45.958Z,23.10
2022-11-16T18:20:50.802Z,25.10
2022-11-16T18:25:53.272Z,25.33
2022-11-16T18:31:09.829Z,26.92
2022-11-16T18:36:12.657Z,25.40
2022-11-16T18:41:16.587Z,24.83
2022-11-16T18:46:23.760Z,22.40
2022-11-16T18:51:27.443Z,21.73
2022-11-16T18:56:29.611Z,25.27
2022-11-16T19:01:31.696Z,22.00
2022-11-16T19:06:33.798Z,21.92
2022-11-16T19:11:36.086Z,23.40
2022-11-16T19:16:43.403Z,20.97
2022-11-16T19:21:49.431Z,20.98
2022-11-16T19:26:52.057Z,19.65
2022-11-16T19:31:54.091Z,18.90
2022-11-16T19:36:56.088Z,19.45
2022-11-16T19:41:58.088Z,19.67
2022-11-16T19:47:00.417Z,22.40
2022-11-16T19:52:02.404Z,19.52
2022-11-16T19:57:04.491Z,17.42
2022-11-16T20:02:06.499Z,17.53
2022-11-16T20:07:09.744Z,18.10
2022-11-16T20:12:11.853Z,19.17
2022-11-16T20:17:13.906Z,18.50
2022-11-16T20:22:16.773Z,19.10
2022-11-16T20:27:19.110Z,19.42
2022-11-16T20:32:21.160Z,15.15
2022-11-16T20:37:23.175Z,16.00
2022-11-16T20:42:25.276Z,14.40
2022-11-16T20:47:27.362Z,13.93
2022-11-16T20:52:29.370Z,15.83
2022-11-16T20:57:31.462Z,14.67
2022-11-16T21:02:33.522Z,15.45
2022-11-16T21:07:35.738Z,18.20
2022-11-16T21:12:56.157Z,17.30
2022-11-16T21:17:58.720Z,19.90
